Time;durP1;ratioP1;P1;durP2;ratioP2;P2;SDS_P1;SDS_P2;PMS_P1;PMS_P2;Temp;Humidity;BMP_temperature;BMP_pressure;BME280_temperature;BME280_humidity;BME280_pressure;Samples;Min_cycle;Max_cycle;Signal;HPM_P1;HPM_P2
2021/11/18 00:01:21;;;;;;;16.95;4.85;;;;;;;6.78;99.94;102743.13;5070730;28;20024;-68
2021/11/18 00:03:46;;;;;;;14.65;4.72;;;;;;;6.77;99.40;102739.63;5076130;28;20499;-67
2021/11/18 00:06:13;;;;;;;13.07;4.43;;;;;;;6.70;98.89;102727.31;5074906;28;20021;-68
2021/11/18 00:08:38;;;;;;;19.38;5.15;;;;;;;6.59;98.31;102735.22;5074780;28;20028;-68
2021/11/18 00:11:06;;;;;;;17.88;4.32;;;;;;;6.51;98.31;102744.81;5076082;28;20036;-68
2021/11/18 00:13:35;;;;;;;18.15;4.38;;;;;;;6.45;99.23;102737.81;5075826;28;20059;-68
2021/11/18 00:16:01;;;;;;;26.25;5.47;;;;;;;6.43;99.65;102744.81;5074893;28;20024;-68
2021/11/18 00:18:30;;;;;;;27.23;5.47;;;;;;;6.42;99.58;102748.34;5074724;28;20020;-68
2021/11/18 00:21:12;;;;;;;16.02;4.43;;;;;;;6.35;99.91;102736.03;5074308;28;20028;-69
2021/11/18 00:23:42;;;;;;;20.52;4.90;;;;;;;6.28;99.48;102742.13;5059833;28;20027;-67
2021/11/18 00:26:07;;;;;;;17.45;5.03;;;;;;;6.19;99.42;102741.22;5074855;28;20465;-68
2021/11/18 00:28:33;;;;;;;17.35;4.82;;;;;;;6.14;99.69;102744.69;5074694;28;20028;-69
2021/11/18 00:31:00;;;;;;;20.95;4.72;;;;;;;6.05;99.29;102754.31;5074550;28;20024;-68
2021/11/18 00:33:26;;;;;;;24.95;5.43;;;;;;;6.05;100.00;102756.09;5075369;28;20040;-68
2021/11/18 00:35:52;;;;;;;23.15;4.78;;;;;;;6.06;100.00;102740.31;5075567;28;20071;-68
2021/11/18 00:38:18;;;;;;;17.35;5.22;;;;;;;6.03;100.00;102742.91;5074515;28;20115;-68
2021/11/18 00:40:46;;;;;;;18.45;4.95;;;;;;;6.00;100.00;102749.94;5074324;28;20476;-69
2021/11/18 00:43:13;;;;;;;24.95;5.25;;;;;;;5.93;100.00;102759.47;5075706;28;20024;-68
2021/11/18 00:45:39;;;;;;;20.02;4.68;;;;;;;5.89;100.00;102753.31;5075561;28;20383;-68
2021/11/18 00:48:06;;;;;;;20.50;4.93;;;;;;;5.95;100.00;102749.84;5074189;28;20024;-68
2021/11/18 00:50:37;;;;;;;30.25;5.35;;;;;;;6.02;100.00;102756.94;5074305;28;20033;-68
2021/11/18 00:53:03;;;;;;;22.60;5.28;;;;;;;6.03;100.00;102745.53;5074471;28;20032;-68
2021/11/18 00:55:30;;;;;;;22.90;5.18;;;;;;;6.03;100.00;102737.63;5076152;28;20035;-68
2021/11/18 00:57:55;;;;;;;28.58;5.80;;;;;;;6.01;100.00;102730.63;5074122;28;20498;-68
2021/11/18 01:00:24;;;;;;;25.38;6.15;;;;;;;6.09;100.00;102739.44;5074246;28;20035;-68
2021/11/18 01:02:50;;;;;;;22.60;5.10;;;;;;;6.10;100.00;102745.56;5055877;28;20475;-68
2021/11/18 01:05:16;;;;;;;23.17;5.43;;;;;;;6.09;100.00;102749.06;5074922;28;20108;-68
2021/11/18 01:07:42;;;;;;;26.98;6.13;;;;;;;6.10;100.00;102766.59;5074908;28;20029;-68
2021/11/18 01:10:10;;;;;;;30.55;5.75;;;;;;;6.15;100.00;102767.50;5074021;28;20028;-68
2021/11/18 01:12:36;;;;;;;17.60;4.93;;;;;;;6.18;100.00;102764.91;5073927;28;20115;-68
2021/11/18 01:15:04;;;;;;;30.17;5.38;;;;;;;6.20;100.00;102758.78;5074913;28;20104;-67
2021/11/18 01:17:29;;;;;;;29.23;5.80;;;;;;;6.20;100.00;102753.53;5075038;28;20024;-68
2021/11/18 01:19:55;;;;;;;24.40;5.43;;;;;;;6.25;100.00;102760.53;5072605;28;20378;-68
2021/11/18 01:22:20;;;;;;;22.70;5.00;;;;;;;6.23;100.00;102750.88;5073694;28;20111;-68
2021/11/18 01:24:46;;;;;;;29.05;6.07;;;;;;;6.22;100.00;102751.75;5073459;28;20032;-68
2021/11/18 01:27:11;;;;;;;26.13;5.25;;;;;;;6.18;100.00;102751.75;5075149;28;20039;-68
2021/11/18 01:29:37;;;;;;;32.72;5.95;;;;;;;6.16;100.00;102756.97;5074049;28;20025;-68
2021/11/18 01:32:03;;;;;;;25.75;5.93;;;;;;;6.17;100.00;102748.22;5072507;28;20048;-68
2021/11/18 01:34:29;;;;;;;23.58;5.90;;;;;;;6.13;100.00;102751.72;5073361;28;20024;-68
2021/11/18 01:36:54;;;;;;;21.00;4.93;;;;;;;6.10;100.00;102762.25;5068688;28;20052;-68
2021/11/18 01:39:19;;;;;;;31.35;5.93;;;;;;;6.01;100.00;102772.69;5086866;28;20084;-68
2021/11/18 01:41:45;;;;;;;27.67;5.13;;;;;;;5.99;100.00;102761.31;5093624;28;20043;-67
2021/11/18 01:44:25;;;;;;;22.80;5.55;;;;;;;5.97;100.00;102763.00;5093681;28;20032;-69
2021/11/18 01:46:50;;;;;;;22.17;5.20;;;;;;;6.02;100.00;102762.22;5089377;28;20025;-69
2021/11/18 01:49:16;;;;;;;19.92;5.30;;;;;;;6.03;100.00;102771.84;5074057;28;20039;-69
2021/11/18 01:51:44;;;;;;;25.92;5.22;;;;;;;6.03;100.00;102774.47;5073095;28;20046;-67
2021/11/18 01:54:14;;;;;;;24.38;5.97;;;;;;;6.06;100.00;102774.50;5073170;28;20036;-69
2021/11/18 01:56:39;;;;;;;22.08;5.43;;;;;;;6.12;100.00;102783.28;5073463;28;20024;-68
2021/11/18 01:59:15;;;;;;;31.67;5.03;;;;;;;6.20;100.00;102785.09;5085883;28;20468;-68
2021/11/18 02:01:42;;;;;;;26.50;5.15;;;;;;;6.29;100.00;102781.63;5093253;28;20020;-68
2021/11/18 02:04:12;;;;;;;23.63;6.03;;;;;;;6.30;100.00;102783.34;5093248;28;20020;-68
2021/11/18 02:06:46;;;;;;;20.70;5.28;;;;;;;6.32;100.00;102793.91;5092867;28;20035;-68
2021/11/18 02:09:15;;;;;;;21.13;4.90;;;;;;;6.32;100.00;102792.16;5090881;28;20024;-67
2021/11/18 02:12:02;;;;;;;19.23;4.85;;;;;;;6.33;100.00;102795.66;5074105;28;20039;-67
2021/11/18 02:14:28;;;;;;;23.25;5.50;;;;;;;6.32;100.00;102788.66;5091930;28;20649;-67
2021/11/18 02:17:00;;;;;;;23.52;5.05;;;;;;;6.38;100.00;102793.91;5075983;28;20060;-67
2021/11/18 02:19:26;;;;;;;25.63;5.53;;;;;;;6.43;100.00;102783.41;5073907;28;20036;-67
2021/11/18 02:21:53;;;;;;;25.73;5.63;;;;;;;6.47;100.00;102785.19;5073511;28;20024;-67
2021/11/18 02:24:29;;;;;;;19.02;4.10;;;;;;;6.52;100.00;102799.25;5072722;28;20036;-69
2021/11/18 02:26:55;;;;;;;20.70;4.70;;;;;;;6.56;100.00;102783.47;5072536;28;20473;-69
2021/11/18 02:29:21;;;;;;;17.10;4.65;;;;;;;6.60;100.00;102794.00;5074575;28;20069;-68
2021/11/18 02:31:53;;;;;;;24.98;4.85;;;;;;;6.63;100.00;102797.53;5072505;28;20515;-67
2021/11/18 02:34:26;;;;;;;18.00;4.72;;;;;;;6.65;100.00;102795.78;5072540;28;20032;-68
2021/11/18 02:36:51;;;;;;;20.88;4.70;;;;;;;6.65;100.00;102789.63;5072452;28;20021;-68
2021/11/18 02:39:16;;;;;;;23.02;4.57;;;;;;;6.69;100.00;102786.16;5074423;28;20513;-68
2021/11/18 02:41:42;;;;;;;22.90;4.30;;;;;;;6.83;100.00;102794.97;5072758;28;20029;-68
2021/11/18 02:44:09;;;;;;;21.58;5.00;;;;;;;6.84;100.00;102791.44;5072480;28;20122;-68
2021/11/18 02:46:35;;;;;;;21.48;4.38;;;;;;;6.84;100.00;102793.19;5072647;28;20055;-68
2021/11/18 02:49:01;;;;;;;27.77;4.32;;;;;;;6.82;100.00;102803.72;5074194;28;20024;-67
2021/11/18 02:51:26;;;;;;;18.98;4.40;;;;;;;6.88;100.00;102805.50;5072299;28;20029;-68
2021/11/18 02:53:52;;;;;;;20.02;4.45;;;;;;;6.91;99.93;102794.97;5072391;28;20028;-68
2021/11/18 02:56:18;;;;;;;19.35;4.10;;;;;;;6.92;99.85;102786.19;5061861;28;20035;-68
2021/11/18 02:58:44;;;;;;;21.70;4.50;;;;;;;6.94;99.82;102783.56;5052244;28;20078;-68
2021/11/18 03:01:14;;;;;;;21.35;4.25;;;;;;;6.95;99.48;102787.97;5081645;28;20028;-68
2021/11/18 03:03:41;;;;;;;20.13;4.97;;;;;;;6.94;99.59;102778.28;5092895;28;20107;-68
2021/11/18 03:06:07;;;;;;;27.20;4.50;;;;;;;6.95;99.29;102787.97;5092562;28;20070;-69
2021/11/18 03:08:33;;;;;;;20.08;5.25;;;;;;;6.97;99.13;102783.56;5092408;28;20028;-68
2021/11/18 03:10:59;;;;;;;19.77;3.80;;;;;;;6.93;99.39;102795.88;5089287;28;20028;-69
2021/11/18 03:13:26;;;;;;;18.17;4.50;;;;;;;6.95;99.49;102787.97;5092056;28;20025;-69
2021/11/18 03:15:53;;;;;;;13.43;4.13;;;;;;;6.95;100.00;102785.31;5092232;28;20081;-68
2021/11/18 03:18:19;;;;;;;20.70;3.88;;;;;;;6.95;100.00;102786.19;5092305;28;20032;-69
2021/11/18 03:20:45;;;;;;;20.40;4.65;;;;;;;7.01;99.94;102778.31;5090134;28;20124;-70
2021/11/18 03:23:11;;;;;;;19.92;4.45;;;;;;;7.08;99.87;102784.44;5091433;28;20455;-68
2021/11/18 03:25:38;;;;;;;22.80;5.60;;;;;;;7.09;99.61;102780.06;5092378;28;20036;-68
2021/11/18 03:28:05;;;;;;;26.75;4.53;;;;;;;7.08;99.59;102776.53;5092171;28;20032;-68
2021/11/18 03:30:35;;;;;;;19.98;3.60;;;;;;;7.09;99.61;102782.72;5092144;28;20036;-68
2021/11/18 03:33:05;;;;;;;19.73;3.95;;;;;;;7.11;99.54;102781.84;5088765;28;20098;-68
2021/11/18 03:35:30;;;;;;;17.75;4.10;;;;;;;7.15;99.40;102791.50;5092100;28;20103;-68
2021/11/18 03:37:56;;;;;;;21.10;4.15;;;;;;;7.16;99.53;102784.44;5091962;28;20063;-69
2021/11/18 03:40:23;;;;;;;19.10;5.22;;;;;;;7.18;99.32;102788.84;5092350;28;20086;-69
2021/11/18 03:42:49;;;;;;;19.45;4.13;;;;;;;7.18;98.95;102786.22;5090981;28;20039;-67
2021/11/18 03:45:16;;;;;;;22.20;4.97;;;;;;;7.18;98.99;102795.88;5095665;28;20046;-67
2021/11/18 03:47:42;;;;;;;21.40;4.50;;;;;;;7.18;99.33;102780.94;5095753;28;20468;-68
2021/11/18 03:50:08;;;;;;;25.65;5.07;;;;;;;7.14;99.21;102773.06;5095972;28;20032;-69
2021/11/18 03:52:33;;;;;;;21.67;4.18;;;;;;;7.13;99.44;102784.47;5094192;28;20024;-68
2021/11/18 03:54:59;;;;;;;21.30;4.78;;;;;;;7.07;99.35;102781.81;5094046;28;20065;-69
2021/11/18 03:57:25;;;;;;;21.58;3.88;;;;;;;7.04;99.41;102780.06;5095434;28;20026;-68
2021/11/18 03:59:50;;;;;;;22.42;4.00;;;;;;;6.96;99.71;102774.78;5095337;28;20387;-68
2021/11/18 04:02:17;;;;;;;27.17;4.50;;;;;;;6.87;100.00;102773.00;5095682;28;20027;-68
2021/11/18 04:04:46;;;;;;;17.35;4.32;;;;;;;6.79;99.98;102782.66;5074903;28;20036;-68
2021/11/18 04:07:13;;;;;;;23.83;4.00;;;;;;;6.78;100.00;102785.28;5094726;28;20414;-68
2021/11/18 04:09:39;;;;;;;28.77;4.28;;;;;;;6.69;100.00;102784.38;5095332;28;20024;-68
2021/11/18 04:12:06;;;;;;;20.63;4.47;;;;;;;6.62;100.00;102779.97;5095049;28;20024;-67
2021/11/18 04:14:33;;;;;;;26.60;4.68;;;;;;;6.61;100.00;102779.97;5092791;28;20028;-68
2021/11/18 04:16:59;;;;;;;23.35;4.40;;;;;;;6.58;100.00;102788.72;5095133;28;20043;-68
2021/11/18 04:19:24;;;;;;;19.25;3.97;;;;;;;6.55;100.00;102791.38;5095028;28;20024;-68
2021/11/18 04:21:51;;;;;;;24.15;4.75;;;;;;;6.58;100.00;102793.13;5095070;28;20103;-68
2021/11/18 04:24:20;;;;;;;17.65;4.68;;;;;;;6.56;100.00;102793.13;5094616;28;20127;-67
2021/11/18 04:26:47;;;;;;;23.88;5.32;;;;;;;6.53;100.00;102793.09;5092957;28;20032;-68
2021/11/18 04:29:14;;;;;;;24.50;4.22;;;;;;;6.52;100.00;102781.72;5094836;28;20077;-69
2021/11/18 04:31:40;;;;;;;23.88;4.32;;;;;;;6.54;100.00;102779.94;5094670;28;20395;-66
2021/11/18 04:34:06;;;;;;;17.90;4.10;;;;;;;6.52;100.00;102779.06;5095048;28;20050;-68
2021/11/18 04:36:34;;;;;;;19.27;4.20;;;;;;;6.52;100.00;102773.81;5092156;28;20043;-68
2021/11/18 04:38:59;;;;;;;21.60;4.53;;;;;;;6.52;100.00;102763.28;5094525;28;20047;-69
2021/11/18 04:41:26;;;;;;;24.95;4.65;;;;;;;6.53;100.00;102757.16;5076028;28;20071;-68
2021/11/18 04:43:52;;;;;;;22.88;4.80;;;;;;;6.53;100.00;102762.41;5094622;28;20016;-68
2021/11/18 04:46:18;;;;;;;24.25;4.72;;;;;;;6.52;100.00;102758.03;5091831;28;20081;-68
2021/11/18 04:48:43;;;;;;;34.95;4.95;;;;;;;6.53;100.00;102766.78;5094971;28;20384;-68
2021/11/18 04:51:12;;;;;;;18.17;4.20;;;;;;;6.53;100.00;102765.06;5075741;28;20051;-68
2021/11/18 04:53:38;;;;;;;25.92;4.63;;;;;;;6.56;100.00;102758.91;5093841;28;20089;-68
2021/11/18 04:56:05;;;;;;;26.40;4.72;;;;;;;6.53;100.00;102753.63;5094637;28;20024;-69
2021/11/18 04:58:31;;;;;;;20.38;4.53;;;;;;;6.50;100.00;102751.00;5090958;28;20016;-67
2021/11/18 05:00:57;;;;;;;23.48;4.18;;;;;;;6.54;100.00;102750.13;5094316;28;20035;-67
2021/11/18 05:03:25;;;;;;;26.02;4.63;;;;;;;6.61;100.00;102758.91;5079501;28;20165;-67
2021/11/18 05:05:51;;;;;;;45.60;5.80;;;;;;;6.63;100.00;102767.69;5074140;28;20028;-67
2021/11/18 05:08:18;;;;;;;30.45;4.85;;;;;;;6.63;100.00;102767.69;5074869;28;20029;-68
2021/11/18 05:10:46;;;;;;;19.98;4.10;;;;;;;6.63;100.00;102770.34;5073876;28;20048;-69
2021/11/18 05:13:13;;;;;;;25.08;4.70;;;;;;;6.66;100.00;102768.59;5074783;28;20106;-71
2021/11/18 05:15:42;;;;;;;24.67;4.55;;;;;;;6.68;100.00;102771.22;5074015;28;20087;-70
2021/11/18 05:18:08;;;;;;;22.48;5.15;;;;;;;6.69;100.00;102767.72;5074580;28;20022;-68
2021/11/18 05:20:34;;;;;;;22.77;4.20;;;;;;;6.72;100.00;102770.34;5073495;28;20099;-68
2021/11/18 05:23:01;;;;;;;22.13;4.65;;;;;;;6.72;100.00;102768.59;5072273;28;20028;-68
2021/11/18 05:25:29;;;;;;;23.52;4.43;;;;;;;6.71;100.00;102760.69;5073379;28;20024;-68
2021/11/18 05:27:55;;;;;;;24.60;5.10;;;;;;;6.77;100.00;102779.13;5073300;28;20500;-68
2021/11/18 05:30:26;;;;;;;26.90;4.55;;;;;;;6.77;100.00;102779.13;5063866;28;20114;-68
2021/11/18 05:32:53;;;;;;;25.30;4.70;;;;;;;6.80;100.00;102760.69;5053254;28;20048;-68
2021/11/18 05:35:21;;;;;;;22.42;4.60;;;;;;;6.80;100.00;102757.19;5085364;28;20032;-68
2021/11/18 05:37:47;;;;;;;24.35;4.78;;;;;;;6.77;100.00;102763.34;5093446;28;20032;-68
2021/11/18 05:40:12;;;;;;;31.65;6.00;;;;;;;6.79;100.00;102771.22;5091621;28;20024;-68
2021/11/18 05:42:38;;;;;;;14.90;4.78;;;;;;;6.81;100.00;102778.25;5093331;28;20028;-68
2021/11/18 05:45:06;;;;;;;18.63;4.95;;;;;;;6.84;100.00;102786.19;5091594;28;20387;-68
2021/11/18 05:47:32;;;;;;;20.42;4.53;;;;;;;6.87;100.00;102767.75;5093481;28;20059;-68
2021/11/18 05:49:59;;;;;;;28.15;5.28;;;;;;;6.89;100.00;102765.09;5073571;28;20528;-69
2021/11/18 05:52:25;;;;;;;24.63;5.07;;;;;;;6.92;100.00;102767.75;5075223;28;20043;-68
2021/11/18 05:54:50;;;;;;;24.58;5.45;;;;;;;6.97;100.00;102771.28;5091277;28;20024;-68
2021/11/18 05:57:15;;;;;;;20.00;4.95;;;;;;;7.02;100.00;102768.63;5081994;28;20470;-68
2021/11/18 05:59:41;;;;;;;26.25;5.72;;;;;;;6.99;100.00;102768.63;5054967;28;20029;-69
2021/11/18 06:02:06;;;;;;;22.15;5.10;;;;;;;6.99;100.00;102773.91;5073864;28;20039;-68
2021/11/18 06:04:31;;;;;;;22.27;5.25;;;;;;;6.98;100.00;102777.41;5072193;28;20024;-68
2021/11/18 06:06:56;;;;;;;22.35;5.32;;;;;;;6.95;100.00;102770.38;5072713;28;20028;-68
2021/11/18 06:09:22;;;;;;;26.77;5.45;;;;;;;6.93;100.00;102781.78;5072062;28;20377;-66
2021/11/18 06:11:47;;;;;;;23.65;5.18;;;;;;;6.92;100.00;102783.56;5053462;28;20350;-68
2021/11/18 06:14:14;;;;;;;25.13;5.70;;;;;;;6.90;100.00;102777.41;5052486;28;20025;-68
2021/11/18 06:16:40;;;;;;;26.75;5.93;;;;;;;6.90;100.00;102785.31;5056622;28;20033;-69
2021/11/18 06:19:06;;;;;;;31.25;6.63;;;;;;;6.93;100.00;102777.44;5034620;28;20442;-68
2021/11/18 06:21:35;;;;;;;37.08;8.18;;;;;;;6.92;100.00;102773.03;5052759;28;20021;-67
2021/11/18 06:24:01;;;;;;;34.28;8.60;;;;;;;6.87;100.00;102773.00;5090572;28;20020;-68
2021/11/18 06:26:27;;;;;;;34.95;7.22;;;;;;;6.87;100.00;102775.63;5092747;28;20020;-69
2021/11/18 06:28:57;;;;;;;53.13;10.70;;;;;;;6.85;100.00;102773.88;5090750;28;20032;-68
2021/11/18 06:31:23;;;;;;;26.42;6.00;;;;;;;6.85;100.00;102777.41;5092602;28;20173;-68
2021/11/18 06:33:49;;;;;;;21.58;5.05;;;;;;;6.85;100.00;102782.69;5084272;28;20062;-67
2021/11/18 06:36:16;;;;;;;32.63;7.07;;;;;;;6.87;100.00;102780.03;5080847;28;20024;-67
2021/11/18 06:38:44;;;;;;;33.58;7.03;;;;;;;6.87;100.00;102777.41;5072573;28;20028;-68
2021/11/18 06:41:11;;;;;;;39.45;8.18;;;;;;;6.88;100.00;102776.53;5072079;28;20055;-68
2021/11/18 06:43:37;;;;;;;44.20;8.27;;;;;;;6.92;100.00;102774.75;5086710;28;20830;-68
2021/11/18 06:46:03;;;;;;;24.42;5.80;;;;;;;6.94;100.00;102779.16;5091810;28;20024;-68
2021/11/18 06:48:30;;;;;;;103.93;21.85;;;;;;;6.96;100.00;102769.50;5092590;28;20039;-68
2021/11/18 06:50:59;;;;;;;31.58;6.05;;;;;;;6.96;100.00;102785.31;5081361;28;20024;-69
2021/11/18 06:53:26;;;;;;;36.33;5.80;;;;;;;6.97;100.00;102786.19;5073268;28;20118;-69
2021/11/18 06:55:51;;;;;;;23.42;4.93;;;;;;;7.03;100.00;102794.09;5072097;28;20047;-70
2021/11/18 06:58:17;;;;;;;23.20;4.95;;;;;;;7.10;100.00;102793.25;5071875;28;20021;-71
2021/11/18 07:00:42;;;;;;;22.20;5.38;;;;;;;7.13;100.00;102793.22;5071886;28;20028;-70
2021/11/18 07:03:09;;;;;;;23.48;5.10;;;;;;;7.20;100.00;102800.28;5074221;28;20020;-72
2021/11/18 07:05:35;;;;;;;31.67;6.03;;;;;;;7.23;100.00;102804.66;5063924;28;20457;-70
2021/11/18 07:08:01;;;;;;;25.33;4.53;;;;;;;7.33;100.00;102824.00;5052183;28;20028;-68
2021/11/18 07:10:26;;;;;;;24.30;4.70;;;;;;;7.41;100.00;102834.56;5052042;28;20428;-69
2021/11/18 07:12:54;;;;;;;29.05;5.40;;;;;;;7.49;100.00;102832.78;5055656;28;20040;-69
2021/11/18 07:15:20;;;;;;;21.08;4.65;;;;;;;7.49;100.00;102828.41;5071694;28;20111;-66
2021/11/18 07:17:45;;;;;;;26.98;5.72;;;;;;;7.55;100.00;102817.84;5069870;28;20064;-69
2021/11/18 07:20:11;;;;;;;31.70;7.63;;;;;;;7.52;100.00;102819.63;5067103;28;20153;-69
2021/11/18 07:22:37;;;;;;;23.65;6.78;;;;;;;7.54;100.00;102826.66;5057735;28;20051;-70
2021/11/18 07:25:06;;;;;;;31.48;6.60;;;;;;;7.57;100.00;102828.41;5078100;28;20454;-67
2021/11/18 07:27:31;;;;;;;29.35;6.85;;;;;;;7.58;100.00;102838.06;5094967;28;20028;-69
2021/11/18 07:29:57;;;;;;;25.75;5.82;;;;;;;7.57;100.00;102828.41;5083096;28;20078;-69
2021/11/18 07:32:22;;;;;;;26.77;6.13;;;;;;;7.52;100.00;102848.63;5074139;28;20094;-69
2021/11/18 07:34:48;;;;;;;27.13;6.43;;;;;;;7.49;100.00;102838.97;5075809;28;20029;-68
2021/11/18 07:37:13;;;;;;;17.65;4.25;;;;;;;7.51;100.00;102841.59;5077662;28;20035;-66
2021/11/18 07:39:38;;;;;;;20.58;5.18;;;;;;;7.48;100.00;102845.09;5087227;28;20024;-69
2021/11/18 07:42:04;;;;;;;26.90;4.50;;;;;;;7.50;100.00;102845.09;5093900;28;20379;-68
2021/11/18 07:44:29;;;;;;;17.00;5.03;;;;;;;7.55;100.00;102844.22;5074983;28;20033;-69
2021/11/18 07:46:55;;;;;;;22.92;5.47;;;;;;;7.58;100.00;102837.19;5069614;28;20025;-68
2021/11/18 07:49:20;;;;;;;30.80;6.60;;;;;;;7.57;100.00;102833.69;5055347;28;20100;-67
2021/11/18 07:51:46;;;;;;;23.30;5.97;;;;;;;7.59;100.00;102828.41;5039351;28;20040;-68
2021/11/18 07:54:16;;;;;;;32.60;7.30;;;;;;;7.64;100.00;102819.59;5075229;28;20033;-68
2021/11/18 07:56:42;;;;;;;25.00;5.70;;;;;;;7.67;100.00;102829.28;5076078;28;20041;-68
2021/11/18 07:59:09;;;;;;;23.08;5.38;;;;;;;7.70;100.00;102843.34;5075963;28;20090;-69
2021/11/18 08:01:34;;;;;;;26.42;5.65;;;;;;;7.76;99.81;102849.47;5075119;28;20464;-68
2021/11/18 08:04:00;;;;;;;27.40;5.55;;;;;;;7.76;99.96;102845.06;5075261;28;20025;-68
2021/11/18 08:06:28;;;;;;;23.73;5.15;;;;;;;7.77;99.35;102838.06;5069596;28;20021;-68
2021/11/18 08:08:55;;;;;;;28.20;5.65;;;;;;;7.74;99.19;102824.84;5069936;28;20025;-68
2021/11/18 08:11:30;;;;;;;25.38;5.60;;;;;;;7.74;99.50;102825.75;5071902;28;20483;-66
2021/11/18 08:13:56;;;;;;;35.38;7.35;;;;;;;7.74;99.54;102824.84;5074057;28;20081;-68
2021/11/18 08:16:22;;;;;;;22.75;5.85;;;;;;;7.75;99.32;102832.78;5075020;28;20460;-68
2021/11/18 08:18:48;;;;;;;22.25;5.43;;;;;;;7.74;99.49;102831.03;5076371;28;20017;-67
2021/11/18 08:21:14;;;;;;;25.23;5.53;;;;;;;7.78;99.45;102839.81;5075028;28;20036;-69
2021/11/18 08:23:40;;;;;;;22.65;5.53;;;;;;;7.78;99.41;102847.75;5074584;28;20024;-67
2021/11/18 08:26:09;;;;;;;24.02;5.80;;;;;;;7.82;99.20;102852.13;5056424;28;20024;-68
2021/11/18 08:28:34;;;;;;;24.60;5.25;;;;;;;7.82;98.81;102839.81;5073287;28;20028;-67
2021/11/18 08:31:01;;;;;;;25.92;5.85;;;;;;;7.85;99.13;102831.91;5074643;28;20494;-68
2021/11/18 08:33:27;;;;;;;22.80;6.72;;;;;;;7.91;99.13;102833.63;5062856;28;20106;-67
2021/11/18 08:35:53;;;;;;;23.63;6.07;;;;;;;7.97;98.89;102846.81;5066937;28;20038;-67
2021/11/18 08:38:20;;;;;;;23.65;5.07;;;;;;;8.08;98.78;102851.19;5074137;28;20399;-67
2021/11/18 08:40:56;;;;;;;19.50;4.70;;;;;;;8.24;98.22;102841.50;5074930;28;20020;-67
2021/11/18 08:43:24;;;;;;;23.90;5.47;;;;;;;8.43;97.47;102834.41;5074305;28;20031;-67
2021/11/18 08:45:50;;;;;;;18.90;5.07;;;;;;;8.61;96.69;102826.41;5081440;28;20036;-68
2021/11/18 08:48:16;;;;;;;19.98;5.28;;;;;;;8.84;95.32;102815.72;5079021;28;20097;-68
2021/11/18 08:50:44;;;;;;;19.08;5.32;;;;;;;8.97;93.98;102813.88;5074543;28;20464;-67
2021/11/18 08:53:12;;;;;;;21.30;4.90;;;;;;;9.23;92.78;102819.88;5073897;28;20111;-69
2021/11/18 08:55:40;;;;;;;24.23;4.80;;;;;;;9.25;92.08;102815.47;5075067;28;20389;-68
2021/11/18 08:58:06;;;;;;;20.70;5.30;;;;;;;9.11;92.06;102828.78;5075306;28;20046;-67
2021/11/18 09:00:38;;;;;;;23.17;5.20;;;;;;;8.98;93.05;102836.78;5074753;28;20077;-67
2021/11/18 09:03:04;;;;;;;27.83;5.40;;;;;;;8.95;93.42;102828.91;5073968;28;20033;-68
2021/11/18 09:05:30;;;;;;;21.05;5.35;;;;;;;8.94;93.43;102835.06;5074338;28;20020;-68
2021/11/18 09:07:57;;;;;;;18.95;4.97;;;;;;;8.92;93.94;102834.19;5072314;28;20392;-67
2021/11/18 09:10:23;;;;;;;23.65;5.18;;;;;;;8.90;94.15;102827.16;5068651;28;20025;-67
2021/11/18 09:12:49;;;;;;;20.25;5.20;;;;;;;9.11;93.91;102819.09;5072993;28;20082;-67
2021/11/18 09:15:17;;;;;;;19.65;5.57;;;;;;;9.47;94.17;102834.69;5072717;28;20100;-68
2021/11/18 09:17:43;;;;;;;23.65;5.95;;;;;;;10.25;90.25;102834.81;5079870;28;20024;-67
2021/11/18 09:20:12;;;;;;;15.90;4.47;;;;;;;11.06;85.41;102835.56;5092094;28;20384;-68
2021/11/18 09:22:38;;;;;;;20.38;5.20;;;;;;;11.82;81.13;102839.63;5093995;28;20023;-68
2021/11/18 09:25:07;;;;;;;15.95;4.50;;;;;;;12.21;78.61;102838.94;5094095;28;20028;-67
2021/11/18 09:27:50;;;;;;;20.65;5.05;;;;;;;12.57;76.80;102836.44;5093719;28;20032;-67
2021/11/18 09:30:25;;;;;;;16.52;4.82;;;;;;;12.76;74.97;102828.94;5059415;28;20024;-66
2021/11/18 09:32:52;;;;;;;21.30;5.25;;;;;;;12.86;73.90;102827.81;5073953;28;20075;-68
2021/11/18 09:35:24;;;;;;;20.10;4.68;;;;;;;13.18;73.06;102823.53;5083437;28;20064;-67
2021/11/18 09:37:49;;;;;;;17.25;4.68;;;;;;;13.33;72.65;102826.75;5073061;28;20040;-67
2021/11/18 09:40:19;;;;;;;19.95;4.45;;;;;;;13.37;71.91;102837.28;5075756;28;20028;-67
2021/11/18 09:43:22;;;;;;;18.80;4.63;;;;;;;13.76;70.73;102831.88;5073346;28;20491;-67
2021/11/18 09:46:15;;;;;;;19.55;4.53;;;;;;;14.23;68.81;102836.84;5069338;28;20028;-67
2021/11/18 09:48:56;;;;;;;15.32;4.50;;;;;;;14.62;67.09;102854.38;5069853;28;20480;-67
2021/11/18 09:51:27;;;;;;;20.67;5.18;;;;;;;14.77;66.62;102852.19;5052984;28;20534;-67
2021/11/18 09:54:11;;;;;;;18.73;4.45;;;;;;;15.08;64.93;102857.47;5053738;28;20515;-67
2021/11/18 09:57:12;;;;;;;19.83;4.55;;;;;;;15.31;64.43;102863.88;5064553;28;20035;-66
2021/11/18 09:59:57;;;;;;;16.98;4.00;;;;;;;15.61;63.94;102871.75;5040488;28;20622;-69
2021/11/18 10:02:40;;;;;;;19.83;4.93;;;;;;;16.01;61.98;102875.75;5072639;28;20028;-70
2021/11/18 10:05:11;;;;;;;21.63;4.80;;;;;;;16.02;61.83;102869.50;5067940;28;20115;-66
2021/11/18 10:07:36;;;;;;;18.98;5.20;;;;;;;16.23;61.29;102867.84;5068832;28;20028;-66
2021/11/18 10:10:18;;;;;;;19.40;5.07;;;;;;;16.15;60.66;102862.78;5072736;28;20481;-67
2021/11/18 10:13:12;;;;;;;;;;;;;;;16.02;61.42;102867.72;5075444;28;20278;-69
2021/11/18 10:15:47;;;;;;;22.35;5.13;;;;;;;15.97;60.88;102866.09;4974597;28;19925;-66
2021/11/18 10:18:18;;;;;;;16.67;4.97;;;;;;;15.94;60.76;102871.56;4988777;28;20035;-68
2021/11/18 10:20:45;;;;;;;18.27;5.32;;;;;;;15.84;62.16;102863.88;4984632;28;20514;-69
2021/11/18 10:23:20;;;;;;;14.30;4.22;;;;;;;15.78;62.42;102869.41;4972805;28;20053;-68
2021/11/18 10:26:00;;;;;;;18.20;4.47;;;;;;;15.80;63.03;102864.88;4983014;28;20432;-69
2021/11/18 10:28:32;;;;;;;19.00;4.90;;;;;;;16.11;61.36;102847.78;4971453;28;20034;-68
2021/11/18 10:31:14;;;;;;;21.17;4.80;;;;;;;16.19;60.67;102853.72;4975841;28;20030;-66
2021/11/18 10:33:42;;;;;;;;;;;;;;;16.42;59.99;102854.69;4969391;28;20618;-65
2021/11/18 10:36:18;;;;;;;16.42;4.78;;;;;;;16.55;59.18;102844.41;4977789;28;19918;-65
2021/11/18 10:39:22;;;;;;;20.95;5.30;;;;;;;16.89;58.62;102851.09;4989791;28;20113;-67
2021/11/18 10:41:59;;;;;;;20.65;4.95;;;;;;;16.60;59.21;102853.13;4921171;29;20075;-67
2021/11/18 10:44:31;;;;;;;15.57;4.22;;;;;;;16.82;59.68;102846.94;4930594;29;20048;-67
2021/11/18 10:47:01;;;;;;;;;;;;;;;16.99;58.16;102835.59;4932491;29;20122;-67
2021/11/18 10:49:48;;;;;;;20.40;5.07;;;;;;;16.90;58.42;102847.50;4919423;29;19927;-67
2021/11/18 10:52:25;;;;;;;21.23;5.30;;;;;;;16.95;58.33;102836.66;4965792;28;20156;-66
2021/11/18 10:55:10;;;;;;;19.05;4.63;;;;;;;17.29;57.05;102829.91;4994213;28;20141;-66
2021/11/18 10:57:49;;;;;;;19.40;5.03;;;;;;;17.00;57.65;102830.16;5013206;28;20069;-66
2021/11/18 11:00:25;;;;;;;19.10;4.43;;;;;;;17.02;58.39;102824.75;5014539;28;20458;-67
2021/11/18 11:02:52;;;;;;;18.42;4.28;;;;;;;16.95;57.21;102808.06;5014279;28;20080;-67
2021/11/18 11:05:28;;;;;;;20.27;4.43;;;;;;;16.53;59.49;102811.47;5002773;28;20065;-67
2021/11/18 11:07:54;;;;;;;18.70;4.97;;;;;;;16.78;59.21;102799.84;4992519;28;20105;-66
2021/11/18 11:10:23;;;;;;;23.95;4.78;;;;;;;16.99;57.96;102796.28;4994638;28;20182;-67
2021/11/18 11:13:01;;;;;;;20.17;4.40;;;;;;;16.92;58.27;102804.63;5007753;28;20029;-67
2021/11/18 11:15:45;;;;;;;23.15;4.65;;;;;;;16.99;58.41;102790.94;5027507;28;20101;-66
2021/11/18 11:18:37;;;;;;;17.75;4.60;;;;;;;16.98;59.08;102805.28;5081721;28;20032;-67
2021/11/18 11:21:51;;;;;;;17.90;4.97;;;;;;;16.69;58.05;102801.94;5090327;28;20105;-67
2021/11/18 11:24:34;;;;;;;17.65;4.47;;;;;;;16.42;58.83;102811.91;4992185;28;20034;-67
2021/11/18 11:27:14;;;;;;;20.35;4.50;;;;;;;16.59;59.54;102807.72;4993716;28;20434;-66